sensor_id;sensor_type;location;lat;lon;timestamp;temperature;humidity
73955;DHT22;62306;52.516;13.290;2023-08-24T00:00:37;20.40;92.80
73955;DHT22;62306;52.516;13.290;2023-08-24T00:03:04;20.40;92.90
73955;DHT22;62306;52.516;13.290;2023-08-24T00:05:33;20.40;93.10
73955;DHT22;62306;52.516;13.290;2023-08-24T00:08:03;20.40;93.20
73955;DHT22;62306;52.516;13.290;2023-08-24T00:10:30;20.40;93.30
73955;DHT22;62306;52.516;13.290;2023-08-24T00:12:59;20.30;93.40
73955;DHT22;62306;52.516;13.290;2023-08-24T00:15:26;20.30;93.40
73955;DHT22;62306;52.516;13.290;2023-08-24T00:17:53;20.20;93.50
73955;DHT22;62306;52.516;13.290;2023-08-24T00:20:20;20.20;93.60
73955;DHT22;62306;52.516;13.290;2023-08-24T00:22:47;20.10;93.80
73955;DHT22;62306;52.516;13.290;2023-08-24T00:25:14;20.10;93.90
73955;DHT22;62306;52.516;13.290;2023-08-24T00:27:41;20.10;94.10
73955;DHT22;62306;52.516;13.290;2023-08-24T00:30:10;20.10;94.40
73955;DHT22;62306;52.516;13.290;2023-08-24T00:32:37;20.10;94.70
73955;DHT22;62306;52.516;13.290;2023-08-24T00:35:06;20.10;94.80
73955;DHT22;62306;52.516;13.290;2023-08-24T00:37:36;20.20;94.80
73955;DHT22;62306;52.516;13.290;2023-08-24T00:40:04;20.10;94.70
73955;DHT22;62306;52.516;13.290;2023-08-24T00:42:37;20.10;94.80
73955;DHT22;62306;52.516;13.290;2023-08-24T00:45:05;20.10;94.90
73955;DHT22;62306;52.516;13.290;2023-08-24T00:47:34;20.00;95.10
73955;DHT22;62306;52.516;13.290;2023-08-24T00:50:02;20.00;95.30
73955;DHT22;62306;52.516;13.290;2023-08-24T00:52:31;20.00;95.40
73955;DHT22;62306;52.516;13.290;2023-08-24T00:54:59;20.00;95.60
73955;DHT22;62306;52.516;13.290;2023-08-24T00:57:27;19.90;95.70
73955;DHT22;62306;52.516;13.290;2023-08-24T00:59:54;19.90;95.80
73955;DHT22;62306;52.516;13.290;2023-08-24T01:02:21;19.90;96.00
73955;DHT22;62306;52.516;13.290;2023-08-24T01:04:49;19.90;96.20
73955;DHT22;62306;52.516;13.290;2023-08-24T01:07:17;19.90;96.20
73955;DHT22;62306;52.516;13.290;2023-08-24T01:09:44;20.00;96.20
73955;DHT22;62306;52.516;13.290;2023-08-24T01:12:18;20.00;96.00
73955;DHT22;62306;52.516;13.290;2023-08-24T01:14:52;20.10;95.90
73955;DHT22;62306;52.516;13.290;2023-08-24T01:17:24;20.10;95.80
73955;DHT22;62306;52.516;13.290;2023-08-24T01:19:58;20.10;95.50
73955;DHT22;62306;52.516;13.290;2023-08-24T01:22:33;20.10;95.40
73955;DHT22;62306;52.516;13.290;2023-08-24T01:25:05;20.10;95.40
73955;DHT22;62306;52.516;13.290;2023-08-24T01:27:36;20.10;95.50
73955;DHT22;62306;52.516;13.290;2023-08-24T01:30:04;20.10;95.50
73955;DHT22;62306;52.516;13.290;2023-08-24T01:32:32;20.10;95.40
73955;DHT22;62306;52.516;13.290;2023-08-24T01:35:01;20.10;95.30
73955;DHT22;62306;52.516;13.290;2023-08-24T01:37:28;20.20;95.40
73955;DHT22;62306;52.516;13.290;2023-08-24T01:40:03;20.20;95.60
73955;DHT22;62306;52.516;13.290;2023-08-24T01:42:41;20.30;95.90
73955;DHT22;62306;52.516;13.290;2023-08-24T01:45:10;20.30;96.10
73955;DHT22;62306;52.516;13.290;2023-08-24T01:47:39;20.30;95.90
73955;DHT22;62306;52.516;13.290;2023-08-24T01:50:09;20.30;95.80
73955;DHT22;62306;52.516;13.290;2023-08-24T01:52:36;20.30;95.80
73955;DHT22;62306;52.516;13.290;2023-08-24T01:55:04;20.20;95.70
73955;DHT22;62306;52.516;13.290;2023-08-24T01:57:31;20.20;95.90
73955;DHT22;62306;52.516;13.290;2023-08-24T02:00:00;20.20;96.10
73955;DHT22;62306;52.516;13.290;2023-08-24T02:02:27;20.20;96.40
73955;DHT22;62306;52.516;13.290;2023-08-24T02:04:54;20.10;97.00
73955;DHT22;62306;52.516;13.290;2023-08-24T02:07:21;20.10;97.60
73955;DHT22;62306;52.516;13.290;2023-08-24T02:09:48;20.20;98.20
73955;DHT22;62306;52.516;13.290;2023-08-24T02:12:15;20.20;98.50
73955;DHT22;62306;52.516;13.290;2023-08-24T02:14:42;20.20;98.70
73955;DHT22;62306;52.516;13.290;2023-08-24T02:17:11;20.30;98.90
73955;DHT22;62306;52.516;13.290;2023-08-24T02:19:38;20.30;98.90
73955;DHT22;62306;52.516;13.290;2023-08-24T02:22:05;20.30;98.90
73955;DHT22;62306;52.516;13.290;2023-08-24T02:24:31;20.40;98.80
73955;DHT22;62306;52.516;13.290;2023-08-24T02:26:59;20.40;98.70
73955;DHT22;62306;52.516;13.290;2023-08-24T02:29:26;20.40;98.70
73955;DHT22;62306;52.516;13.290;2023-08-24T02:31:53;20.40;98.60
73955;DHT22;62306;52.516;13.290;2023-08-24T02:34:21;20.30;98.60
73955;DHT22;62306;52.516;13.290;2023-08-24T02:36:48;20.30;98.70
73955;DHT22;62306;52.516;13.290;2023-08-24T02:39:15;20.30;98.70
73955;DHT22;62306;52.516;13.290;2023-08-24T02:41:42;20.30;98.80
73955;DHT22;62306;52.516;13.290;2023-08-24T02:44:09;20.30;98.90
73955;DHT22;62306;52.516;13.290;2023-08-24T02:46:36;20.30;98.80
73955;DHT22;62306;52.516;13.290;2023-08-24T02:49:03;20.30;98.80
73955;DHT22;62306;52.516;13.290;2023-08-24T02:51:32;20.30;99.00
73955;DHT22;62306;52.516;13.290;2023-08-24T02:53:59;20.30;99.00
73955;DHT22;62306;52.516;13.290;2023-08-24T02:56:26;20.30;99.00
73955;DHT22;62306;52.516;13.290;2023-08-24T02:58:53;20.20;99.00
73955;DHT22;62306;52.516;13.290;2023-08-24T03:01:20;20.20;99.10
73955;DHT22;62306;52.516;13.290;2023-08-24T03:03:47;20.30;99.10
73955;DHT22;62306;52.516;13.290;2023-08-24T03:06:14;20.30;99.10
73955;DHT22;62306;52.516;13.290;2023-08-24T03:08:42;20.30;99.10
73955;DHT22;62306;52.516;13.290;2023-08-24T03:11:09;20.30;99.00
73955;DHT22;62306;52.516;13.290;2023-08-24T03:13:37;20.30;98.90
73955;DHT22;62306;52.516;13.290;2023-08-24T03:16:04;20.20;98.80
73955;DHT22;62306;52.516;13.290;2023-08-24T03:18:32;20.20;98.50
73955;DHT22;62306;52.516;13.290;2023-08-24T03:20:59;20.30;98.50
73955;DHT22;62306;52.516;13.290;2023-08-24T03:23:26;20.30;98.50
73955;DHT22;62306;52.516;13.290;2023-08-24T03:25:55;20.30;98.40
73955;DHT22;62306;52.516;13.290;2023-08-24T03:28:22;20.30;98.40
73955;DHT22;62306;52.516;13.290;2023-08-24T03:30:51;20.30;98.30
73955;DHT22;62306;52.516;13.290;2023-08-24T03:33:21;20.30;98.10
73955;DHT22;62306;52.516;13.290;2023-08-24T03:35:48;20.30;98.00
73955;DHT22;62306;52.516;13.290;2023-08-24T03:38:15;20.30;98.00
73955;DHT22;62306;52.516;13.290;2023-08-24T03:40:42;20.30;97.70
73955;DHT22;62306;52.516;13.290;2023-08-24T03:43:11;20.30;97.70
73955;DHT22;62306;52.516;13.290;2023-08-24T03:45:38;20.30;97.70
73955;DHT22;62306;52.516;13.290;2023-08-24T03:48:05;20.30;97.70
73955;DHT22;62306;52.516;13.290;2023-08-24T03:50:32;20.20;97.60
73955;DHT22;62306;52.516;13.290;2023-08-24T03:52:59;20.20;97.60
73955;DHT22;62306;52.516;13.290;2023-08-24T03:55:26;20.20;97.70
73955;DHT22;62306;52.516;13.290;2023-08-24T03:57:53;20.20;97.70
73955;DHT22;62306;52.516;13.290;2023-08-24T04:00:22;20.30;97.60
73955;DHT22;62306;52.516;13.290;2023-08-24T04:02:49;20.20;97.60
73955;DHT22;62306;52.516;13.290;2023-08-24T04:05:16;20.20;97.60
73955;DHT22;62306;52.516;13.290;2023-08-24T04:07:43;20.20;97.70
73955;DHT22;62306;52.516;13.290;2023-08-24T04:10:11;20.20;97.80
73955;DHT22;62306;52.516;13.290;2023-08-24T04:12:38;20.20;97.90
73955;DHT22;62306;52.516;13.290;2023-08-24T04:15:06;20.20;97.90
73955;DHT22;62306;52.516;13.290;2023-08-24T04:17:34;20.20;97.90
73955;DHT22;62306;52.516;13.290;2023-08-24T04:20:01;20.20;98.00
73955;DHT22;62306;52.516;13.290;2023-08-24T04:22:29;20.20;98.00
73955;DHT22;62306;52.516;13.290;2023-08-24T04:24:56;20.20;98.00
73955;DHT22;62306;52.516;13.290;2023-08-24T04:27:23;20.20;98.00
73955;DHT22;62306;52.516;13.290;2023-08-24T04:29:50;20.20;97.90
73955;DHT22;62306;52.516;13.290;2023-08-24T04:32:18;20.20;97.80
73955;DHT22;62306;52.516;13.290;2023-08-24T04:34:46;20.20;97.70
73955;DHT22;62306;52.516;13.290;2023-08-24T04:37:13;20.30;97.90
73955;DHT22;62306;52.516;13.290;2023-08-24T04:39:40;20.30;97.80
73955;DHT22;62306;52.516;13.290;2023-08-24T04:42:07;20.20;97.80
73955;DHT22;62306;52.516;13.290;2023-08-24T04:44:34;20.20;97.90
73955;DHT22;62306;52.516;13.290;2023-08-24T04:47:01;20.20;98.00
73955;DHT22;62306;52.516;13.290;2023-08-24T04:49:30;20.20;98.00
73955;DHT22;62306;52.516;13.290;2023-08-24T04:51:58;20.20;98.00
73955;DHT22;62306;52.516;13.290;2023-08-24T04:54:25;20.20;98.00
73955;DHT22;62306;52.516;13.290;2023-08-24T04:56:52;20.20;98.10
73955;DHT22;62306;52.516;13.290;2023-08-24T04:59:19;20.20;98.10
73955;DHT22;62306;52.516;13.290;2023-08-24T05:01:46;20.20;98.10
73955;DHT22;62306;52.516;13.290;2023-08-24T05:04:13;20.30;98.10
73955;DHT22;62306;52.516;13.290;2023-08-24T05:06:40;20.40;97.90
73955;DHT22;62306;52.516;13.290;2023-08-24T05:09:08;20.50;97.70
73955;DHT22;62306;52.516;13.290;2023-08-24T05:11:36;20.60;97.30
73955;DHT22;62306;52.516;13.290;2023-08-24T05:14:03;20.70;97.30
73955;DHT22;62306;52.516;13.290;2023-08-24T05:16:30;20.80;97.20
73955;DHT22;62306;52.516;13.290;2023-08-24T05:18:57;20.90;97.10
73955;DHT22;62306;52.516;13.290;2023-08-24T05:21:24;21.00;96.90
73955;DHT22;62306;52.516;13.290;2023-08-24T05:23:51;21.10;96.70
73955;DHT22;62306;52.516;13.290;2023-08-24T05:26:19;21.10;96.60
73955;DHT22;62306;52.516;13.290;2023-08-24T05:28:50;21.20;96.40
73955;DHT22;62306;52.516;13.290;2023-08-24T05:31:17;21.30;96.30
73955;DHT22;62306;52.516;13.290;2023-08-24T05:33:44;21.40;96.20
73955;DHT22;62306;52.516;13.290;2023-08-24T05:36:11;21.50;96.10
73955;DHT22;62306;52.516;13.290;2023-08-24T05:38:38;21.50;95.80
73955;DHT22;62306;52.516;13.290;2023-08-24T05:41:10;21.50;95.80
73955;DHT22;62306;52.516;13.290;2023-08-24T05:43:38;21.80;95.40
73955;DHT22;62306;52.516;13.290;2023-08-24T05:46:05;22.10;94.90
73955;DHT22;62306;52.516;13.290;2023-08-24T05:48:32;22.30;94.60
73955;DHT22;62306;52.516;13.290;2023-08-24T05:50:59;22.80;93.90
73955;DHT22;62306;52.516;13.290;2023-08-24T05:53:26;23.60;92.40
73955;DHT22;62306;52.516;13.290;2023-08-24T05:55:57;25.80;91.50
73955;DHT22;62306;52.516;13.290;2023-08-24T05:58:24;24.60;90.20
73955;DHT22;62306;52.516;13.290;2023-08-24T06:00:57;24.60;90.10
73955;DHT22;62306;52.516;13.290;2023-08-24T06:03:24;25.50;87.20
73955;DHT22;62306;52.516;13.290;2023-08-24T06:05:51;26.20;84.20
73955;DHT22;62306;52.516;13.290;2023-08-24T06:08:18;26.80;81.70
73955;DHT22;62306;52.516;13.290;2023-08-24T06:10:46;27.20;80.50
73955;DHT22;62306;52.516;13.290;2023-08-24T06:13:12;27.30;79.20
73955;DHT22;62306;52.516;13.290;2023-08-24T06:15:39;27.00;79.30
73955;DHT22;62306;52.516;13.290;2023-08-24T06:18:08;26.60;80.30
73955;DHT22;62306;52.516;13.290;2023-08-24T06:20:35;26.20;80.50
73955;DHT22;62306;52.516;13.290;2023-08-24T06:23:02;25.80;81.00
73955;DHT22;62306;52.516;13.290;2023-08-24T06:25:30;25.80;80.90
73955;DHT22;62306;52.516;13.290;2023-08-24T06:27:58;25.80;80.60
73955;DHT22;62306;52.516;13.290;2023-08-24T06:30:25;25.70;81.00
73955;DHT22;62306;52.516;13.290;2023-08-24T06:32:52;25.80;80.70
73955;DHT22;62306;52.516;13.290;2023-08-24T06:35:20;25.90;80.70
73955;DHT22;62306;52.516;13.290;2023-08-24T06:37:47;26.00;80.10
73955;DHT22;62306;52.516;13.290;2023-08-24T06:40:14;26.00;80.20
73955;DHT22;62306;52.516;13.290;2023-08-24T06:42:43;26.20;79.70
73955;DHT22;62306;52.516;13.290;2023-08-24T06:45:10;26.20;79.50
73955;DHT22;62306;52.516;13.290;2023-08-24T06:47:37;26.30;79.60
73955;DHT22;62306;52.516;13.290;2023-08-24T06:50:04;26.60;79.60
73955;DHT22;62306;52.516;13.290;2023-08-24T06:52:33;26.80;77.90
73955;DHT22;62306;52.516;13.290;2023-08-24T06:55:00;26.80;78.40
73955;DHT22;62306;52.516;13.290;2023-08-24T06:57:27;27.00;77.50
73955;DHT22;62306;52.516;13.290;2023-08-24T06:59:54;27.30;75.80
73955;DHT22;62306;52.516;13.290;2023-08-24T07:02:21;27.10;75.40
73955;DHT22;62306;52.516;13.290;2023-08-24T07:04:48;27.20;74.70
73955;DHT22;62306;52.516;13.290;2023-08-24T07:07:15;27.30;74.40
73955;DHT22;62306;52.516;13.290;2023-08-24T07:09:44;27.30;73.20
73955;DHT22;62306;52.516;13.290;2023-08-24T07:12:11;27.00;73.60
73955;DHT22;62306;52.516;13.290;2023-08-24T07:14:38;26.90;73.70
73955;DHT22;62306;52.516;13.290;2023-08-24T07:17:06;27.00;73.60
73955;DHT22;62306;52.516;13.290;2023-08-24T07:19:33;27.20;73.20
73955;DHT22;62306;52.516;13.290;2023-08-24T07:22:00;27.40;72.90
73955;DHT22;62306;52.516;13.290;2023-08-24T07:24:27;27.40;73.10
73955;DHT22;62306;52.516;13.290;2023-08-24T07:26:56;27.50;72.90
73955;DHT22;62306;52.516;13.290;2023-08-24T07:29:24;27.70;72.50
73955;DHT22;62306;52.516;13.290;2023-08-24T07:31:51;27.90;72.30
73955;DHT22;62306;52.516;13.290;2023-08-24T07:34:18;27.90;72.30
73955;DHT22;62306;52.516;13.290;2023-08-24T07:36:45;28.00;71.60
73955;DHT22;62306;52.516;13.290;2023-08-24T07:39:14;28.00;71.50
73955;DHT22;62306;52.516;13.290;2023-08-24T07:41:41;28.00;71.80
73955;DHT22;62306;52.516;13.290;2023-08-24T07:44:09;28.20;71.30
73955;DHT22;62306;52.516;13.290;2023-08-24T07:46:39;28.20;71.40
73955;DHT22;62306;52.516;13.290;2023-08-24T07:49:06;28.20;71.70
73955;DHT22;62306;52.516;13.290;2023-08-24T07:51:33;28.40;71.10
73955;DHT22;62306;52.516;13.290;2023-08-24T07:54:00;28.50;70.40
73955;DHT22;62306;52.516;13.290;2023-08-24T07:56:27;28.40;71.10
73955;DHT22;62306;52.516;13.290;2023-08-24T07:58:54;28.50;70.80
73955;DHT22;62306;52.516;13.290;2023-08-24T08:01:23;28.90;68.80
73955;DHT22;62306;52.516;13.290;2023-08-24T08:03:50;28.90;68.10
73955;DHT22;62306;52.516;13.290;2023-08-24T08:06:17;28.80;68.60
73955;DHT22;62306;52.516;13.290;2023-08-24T08:08:44;28.90;68.00
73955;DHT22;62306;52.516;13.290;2023-08-24T08:11:12;29.00;67.60
73955;DHT22;62306;52.516;13.290;2023-08-24T08:13:39;28.90;67.10
73955;DHT22;62306;52.516;13.290;2023-08-24T08:16:06;28.60;67.10
73955;DHT22;62306;52.516;13.290;2023-08-24T08:18:36;28.20;68.10
73955;DHT22;62306;52.516;13.290;2023-08-24T08:21:09;28.00;68.00
73955;DHT22;62306;52.516;13.290;2023-08-24T08:23:37;28.10;68.00
73955;DHT22;62306;52.516;13.290;2023-08-24T08:26:04;28.40;67.80
73955;DHT22;62306;52.516;13.290;2023-08-24T08:28:31;28.30;67.50
73955;DHT22;62306;52.516;13.290;2023-08-24T08:31:00;27.90;68.30
73955;DHT22;62306;52.516;13.290;2023-08-24T08:33:27;27.50;69.60
73955;DHT22;62306;52.516;13.290;2023-08-24T08:35:56;27.20;69.50
73955;DHT22;62306;52.516;13.290;2023-08-24T08:38:23;26.90;69.90
73955;DHT22;62306;52.516;13.290;2023-08-24T08:40:51;26.60;70.50
73955;DHT22;62306;52.516;13.290;2023-08-24T08:43:21;26.50;70.90
73955;DHT22;62306;52.516;13.290;2023-08-24T08:45:49;26.40;71.00
73955;DHT22;62306;52.516;13.290;2023-08-24T08:48:20;26.30;71.60
73955;DHT22;62306;52.516;13.290;2023-08-24T08:50:48;26.20;72.20
73955;DHT22;62306;52.516;13.290;2023-08-24T08:53:21;26.30;72.30
73955;DHT22;62306;52.516;13.290;2023-08-24T08:55:49;26.30;72.40
73955;DHT22;62306;52.516;13.290;2023-08-24T08:58:18;26.50;72.50
73955;DHT22;62306;52.516;13.290;2023-08-24T09:00:46;26.50;72.90
73955;DHT22;62306;52.516;13.290;2023-08-24T09:03:14;26.70;72.50
73955;DHT22;62306;52.516;13.290;2023-08-24T09:05:44;26.70;72.20
73955;DHT22;62306;52.516;13.290;2023-08-24T09:08:13;26.60;72.10
73955;DHT22;62306;52.516;13.290;2023-08-24T09:10:42;26.70;73.20
73955;DHT22;62306;52.516;13.290;2023-08-24T09:13:09;26.90;72.80
73955;DHT22;62306;52.516;13.290;2023-08-24T09:15:36;27.30;71.60
73955;DHT22;62306;52.516;13.290;2023-08-24T09:18:04;27.40;70.20
73955;DHT22;62306;52.516;13.290;2023-08-24T09:20:31;27.30;70.30
73955;DHT22;62306;52.516;13.290;2023-08-24T09:22:59;27.20;70.50
73955;DHT22;62306;52.516;13.290;2023-08-24T09:25:26;26.90;70.60
73955;DHT22;62306;52.516;13.290;2023-08-24T09:27:58;26.60;69.80
73955;DHT22;62306;52.516;13.290;2023-08-24T09:30:29;26.80;70.40
73955;DHT22;62306;52.516;13.290;2023-08-24T09:33:01;27.10;69.70
73955;DHT22;62306;52.516;13.290;2023-08-24T09:35:28;27.10;69.60
73955;DHT22;62306;52.516;13.290;2023-08-24T09:37:55;27.20;69.30
73955;DHT22;62306;52.516;13.290;2023-08-24T09:40:24;27.20;68.50
73955;DHT22;62306;52.516;13.290;2023-08-24T09:42:51;27.10;69.30
73955;DHT22;62306;52.516;13.290;2023-08-24T09:45:20;27.30;69.30
73955;DHT22;62306;52.516;13.290;2023-08-24T09:47:49;27.50;69.10
73955;DHT22;62306;52.516;13.290;2023-08-24T09:50:18;27.70;68.40
73955;DHT22;62306;52.516;13.290;2023-08-24T09:52:47;27.70;67.60
73955;DHT22;62306;52.516;13.290;2023-08-24T09:55:19;27.80;68.10
73955;DHT22;62306;52.516;13.290;2023-08-24T09:57:48;27.60;66.80
73955;DHT22;62306;52.516;13.290;2023-08-24T10:00:17;27.90;65.50
73955;DHT22;62306;52.516;13.290;2023-08-24T10:02:51;27.80;66.60
73955;DHT22;62306;52.516;13.290;2023-08-24T10:05:21;27.60;66.00
73955;DHT22;62306;52.516;13.290;2023-08-24T10:07:51;28.10;66.00
73955;DHT22;62306;52.516;13.290;2023-08-24T10:10:19;28.20;66.00
73955;DHT22;62306;52.516;13.290;2023-08-24T10:12:50;28.30;65.30
73955;DHT22;62306;52.516;13.290;2023-08-24T10:15:18;28.40;65.30
73955;DHT22;62306;52.516;13.290;2023-08-24T10:17:46;28.30;65.20
73955;DHT22;62306;52.516;13.290;2023-08-24T10:20:16;28.50;65.50
73955;DHT22;62306;52.516;13.290;2023-08-24T10:22:46;28.50;65.50
73955;DHT22;62306;52.516;13.290;2023-08-24T10:25:16;28.60;64.90
73955;DHT22;62306;52.516;13.290;2023-08-24T10:27:45;28.50;65.10
73955;DHT22;62306;52.516;13.290;2023-08-24T10:30:14;28.40;65.50
73955;DHT22;62306;52.516;13.290;2023-08-24T10:32:43;28.50;64.80
73955;DHT22;62306;52.516;13.290;2023-08-24T10:35:11;28.40;64.80
73955;DHT22;62306;52.516;13.290;2023-08-24T10:37:44;28.30;66.00
73955;DHT22;62306;52.516;13.290;2023-08-24T10:40:13;28.20;65.40
73955;DHT22;62306;52.516;13.290;2023-08-24T10:42:46;28.20;65.20
73955;DHT22;62306;52.516;13.290;2023-08-24T10:45:14;28.10;65.70
73955;DHT22;62306;52.516;13.290;2023-08-24T10:47:45;28.30;65.40
73955;DHT22;62306;52.516;13.290;2023-08-24T10:50:13;28.30;64.10
73955;DHT22;62306;52.516;13.290;2023-08-24T10:52:43;28.10;65.00
73955;DHT22;62306;52.516;13.290;2023-08-24T10:55:24;28.10;64.60
73955;DHT22;62306;52.516;13.290;2023-08-24T10:57:58;28.20;65.50
73955;DHT22;62306;52.516;13.290;2023-08-24T11:00:26;28.30;65.70
73955;DHT22;62306;52.516;13.290;2023-08-24T11:02:54;28.30;65.40
73955;DHT22;62306;52.516;13.290;2023-08-24T11:05:22;28.40;65.10
73955;DHT22;62306;52.516;13.290;2023-08-24T11:07:54;28.50;65.00
73955;DHT22;62306;52.516;13.290;2023-08-24T11:10:22;28.70;64.40
73955;DHT22;62306;52.516;13.290;2023-08-24T11:15:42;28.80;63.80
73955;DHT22;62306;52.516;13.290;2023-08-24T11:18:22;28.60;63.50
73955;DHT22;62306;52.516;13.290;2023-08-24T11:23:25;28.70;63.70
73955;DHT22;62306;52.516;13.290;2023-08-24T11:25:54;28.80;63.90
73955;DHT22;62306;52.516;13.290;2023-08-24T11:28:23;28.80;63.40
73955;DHT22;62306;52.516;13.290;2023-08-24T11:30:51;28.70;63.20
73955;DHT22;62306;52.516;13.290;2023-08-24T11:33:28;28.70;63.60
73955;DHT22;62306;52.516;13.290;2023-08-24T11:35:56;28.60;63.80
73955;DHT22;62306;52.516;13.290;2023-08-24T11:38:25;28.70;63.30
73955;DHT22;62306;52.516;13.290;2023-08-24T11:40:52;28.70;63.40
73955;DHT22;62306;52.516;13.290;2023-08-24T11:43:24;28.80;63.10
73955;DHT22;62306;52.516;13.290;2023-08-24T11:45:53;28.90;63.10
73955;DHT22;62306;52.516;13.290;2023-08-24T11:48:24;28.80;62.90
73955;DHT22;62306;52.516;13.290;2023-08-24T11:50:51;28.60;63.30
73955;DHT22;62306;52.516;13.290;2023-08-24T11:53:19;28.50;63.60
73955;DHT22;62306;52.516;13.290;2023-08-24T11:55:48;28.70;63.00
73955;DHT22;62306;52.516;13.290;2023-08-24T11:58:15;28.80;63.10
73955;DHT22;62306;52.516;13.290;2023-08-24T12:00:43;28.80;62.70
73955;DHT22;62306;52.516;13.290;2023-08-24T12:03:10;28.90;62.10
73955;DHT22;62306;52.516;13.290;2023-08-24T12:05:38;28.90;62.20
73955;DHT22;62306;52.516;13.290;2023-08-24T12:08:05;29.00;62.20
73955;DHT22;62306;52.516;13.290;2023-08-24T12:10:32;28.90;62.60
73955;DHT22;62306;52.516;13.290;2023-08-24T12:13:03;29.00;62.80
73955;DHT22;62306;52.516;13.290;2023-08-24T12:15:30;29.00;62.90
73955;DHT22;62306;52.516;13.290;2023-08-24T12:17:57;29.20;62.10
73955;DHT22;62306;52.516;13.290;2023-08-24T12:20:24;29.10;62.00
73955;DHT22;62306;52.516;13.290;2023-08-24T12:22:52;29.00;62.20
73955;DHT22;62306;52.516;13.290;2023-08-24T12:25:22;29.10;62.40
73955;DHT22;62306;52.516;13.290;2023-08-24T12:27:50;29.00;62.60
73955;DHT22;62306;52.516;13.290;2023-08-24T12:30:20;29.00;62.50
73955;DHT22;62306;52.516;13.290;2023-08-24T12:32:48;29.00;62.50
73955;DHT22;62306;52.516;13.290;2023-08-24T12:35:16;29.10;62.00
73955;DHT22;62306;52.516;13.290;2023-08-24T12:37:44;29.00;61.90
73955;DHT22;62306;52.516;13.290;2023-08-24T12:40:12;29.00;61.80
73955;DHT22;62306;52.516;13.290;2023-08-24T12:42:39;29.00;60.90
73955;DHT22;62306;52.516;13.290;2023-08-24T12:45:07;29.10;60.90
73955;DHT22;62306;52.516;13.290;2023-08-24T12:47:36;29.30;61.00
73955;DHT22;62306;52.516;13.290;2023-08-24T12:50:06;29.50;60.70
73955;DHT22;62306;52.516;13.290;2023-08-24T12:52:33;29.50;60.40
73955;DHT22;62306;52.516;13.290;2023-08-24T12:55:01;29.50;61.20
73955;DHT22;62306;52.516;13.290;2023-08-24T12:57:29;29.40;60.80
73955;DHT22;62306;52.516;13.290;2023-08-24T12:59:55;29.50;61.10
73955;DHT22;62306;52.516;13.290;2023-08-24T13:02:23;29.60;60.70
73955;DHT22;62306;52.516;13.290;2023-08-24T13:04:52;29.50;60.80
73955;DHT22;62306;52.516;13.290;2023-08-24T13:07:20;29.40;61.00
73955;DHT22;62306;52.516;13.290;2023-08-24T13:09:47;29.30;60.40
73955;DHT22;62306;52.516;13.290;2023-08-24T13:12:14;29.40;60.40
73955;DHT22;62306;52.516;13.290;2023-08-24T13:14:41;29.30;60.60
73955;DHT22;62306;52.516;13.290;2023-08-24T13:17:08;29.40;61.00
73955;DHT22;62306;52.516;13.290;2023-08-24T13:19:35;29.50;60.20
73955;DHT22;62306;52.516;13.290;2023-08-24T13:22:03;29.50;60.10
73955;DHT22;62306;52.516;13.290;2023-08-24T13:24:30;29.60;60.00
73955;DHT22;62306;52.516;13.290;2023-08-24T13:26:57;29.80;60.10
73955;DHT22;62306;52.516;13.290;2023-08-24T13:29:24;29.80;60.40
73955;DHT22;62306;52.516;13.290;2023-08-24T13:31:51;29.70;61.00
73955;DHT22;62306;52.516;13.290;2023-08-24T13:34:18;29.60;61.40
73955;DHT22;62306;52.516;13.290;2023-08-24T13:36:45;29.50;62.30
73955;DHT22;62306;52.516;13.290;2023-08-24T13:39:13;29.60;62.20
73955;DHT22;62306;52.516;13.290;2023-08-24T13:41:40;29.50;61.60
73955;DHT22;62306;52.516;13.290;2023-08-24T13:44:07;29.50;61.70
73955;DHT22;62306;52.516;13.290;2023-08-24T13:46:34;29.50;61.60
73955;DHT22;62306;52.516;13.290;2023-08-24T13:49:01;29.40;61.90
73955;DHT22;62306;52.516;13.290;2023-08-24T13:51:28;29.50;61.90
73955;DHT22;62306;52.516;13.290;2023-08-24T13:53:55;29.60;61.20
73955;DHT22;62306;52.516;13.290;2023-08-24T13:56:23;29.60;61.50
73955;DHT22;62306;52.516;13.290;2023-08-24T13:58:50;29.60;61.40
73955;DHT22;62306;52.516;13.290;2023-08-24T14:01:18;29.60;61.40
73955;DHT22;62306;52.516;13.290;2023-08-24T14:03:45;29.50;60.80
73955;DHT22;62306;52.516;13.290;2023-08-24T14:06:12;29.60;60.60
73955;DHT22;62306;52.516;13.290;2023-08-24T14:08:40;29.60;60.80
73955;DHT22;62306;52.516;13.290;2023-08-24T14:11:07;29.50;60.30
73955;DHT22;62306;52.516;13.290;2023-08-24T14:13:35;29.40;60.60
73955;DHT22;62306;52.516;13.290;2023-08-24T14:16:02;29.30;60.20
73955;DHT22;62306;52.516;13.290;2023-08-24T14:18:29;29.20;60.20
73955;DHT22;62306;52.516;13.290;2023-08-24T14:20:56;29.20;60.30
73955;DHT22;62306;52.516;13.290;2023-08-24T14:23:23;29.00;60.30
73955;DHT22;62306;52.516;13.290;2023-08-24T14:25:50;29.00;60.50
73955;DHT22;62306;52.516;13.290;2023-08-24T14:28:19;29.20;61.30
73955;DHT22;62306;52.516;13.290;2023-08-24T14:30:48;29.20;60.70
73955;DHT22;62306;52.516;13.290;2023-08-24T14:33:15;29.30;60.80
73955;DHT22;62306;52.516;13.290;2023-08-24T14:35:50;29.50;60.40
73955;DHT22;62306;52.516;13.290;2023-08-24T14:38:17;29.50;61.00
73955;DHT22;62306;52.516;13.290;2023-08-24T14:40:44;29.50;60.20
73955;DHT22;62306;52.516;13.290;2023-08-24T14:43:11;29.50;61.20
73955;DHT22;62306;52.516;13.290;2023-08-24T14:45:38;29.40;60.40
73955;DHT22;62306;52.516;13.290;2023-08-24T14:48:06;29.40;60.40
73955;DHT22;62306;52.516;13.290;2023-08-24T14:50:33;29.30;60.70
73955;DHT22;62306;52.516;13.290;2023-08-24T14:53:00;29.20;60.90
73955;DHT22;62306;52.516;13.290;2023-08-24T14:55:26;29.00;60.20
73955;DHT22;62306;52.516;13.290;2023-08-24T14:57:53;29.00;61.30
73955;DHT22;62306;52.516;13.290;2023-08-24T15:00:22;29.00;61.50
73955;DHT22;62306;52.516;13.290;2023-08-24T15:02:48;29.10;61.70
73955;DHT22;62306;52.516;13.290;2023-08-24T15:05:17;29.20;62.00
73955;DHT22;62306;52.516;13.290;2023-08-24T15:07:43;29.20;61.80
73955;DHT22;62306;52.516;13.290;2023-08-24T15:10:10;29.30;61.70
73955;DHT22;62306;52.516;13.290;2023-08-24T15:12:37;29.40;60.90
73955;DHT22;62306;52.516;13.290;2023-08-24T15:15:05;29.30;61.30
73955;DHT22;62306;52.516;13.290;2023-08-24T15:17:32;29.30;61.10
73955;DHT22;62306;52.516;13.290;2023-08-24T15:19:59;29.10;61.10
73955;DHT22;62306;52.516;13.290;2023-08-24T15:22:27;29.30;62.10
73955;DHT22;62306;52.516;13.290;2023-08-24T15:24:54;29.20;61.20